sensor_id;sensor_type;location;lat;lon;timestamp;temperature;humidity
53053;DHT22;38934;52.690;6.184;2023-04-08T00:00:09;4.80;99.90
53053;DHT22;38934;52.690;6.184;2023-04-08T00:02:35;4.80;99.90
53053;DHT22;38934;52.690;6.184;2023-04-08T00:05:01;4.80;99.90
53053;DHT22;38934;52.690;6.184;2023-04-08T00:07:26;4.80;99.90
53053;DHT22;38934;52.690;6.184;2023-04-08T00:09:52;4.70;99.90
53053;DHT22;38934;52.690;6.184;2023-04-08T00:12:18;4.60;99.90
53053;DHT22;38934;52.690;6.184;2023-04-08T00:14:43;4.60;99.90
53053;DHT22;38934;52.690;6.184;2023-04-08T00:17:10;4.60;99.90
53053;DHT22;38934;52.690;6.184;2023-04-08T00:19:37;4.50;99.90
53053;DHT22;38934;52.690;6.184;2023-04-08T00:22:03;4.50;99.90
53053;DHT22;38934;52.690;6.184;2023-04-08T00:24:29;4.50;99.90
53053;DHT22;38934;52.690;6.184;2023-04-08T00:26:54;4.50;99.90
53053;DHT22;38934;52.690;6.184;2023-04-08T00:29:20;4.40;99.90
53053;DHT22;38934;52.690;6.184;2023-04-08T00:31:46;4.40;99.90
53053;DHT22;38934;52.690;6.184;2023-04-08T00:34:12;4.30;99.90
53053;DHT22;38934;52.690;6.184;2023-04-08T00:36:37;4.30;99.90
53053;DHT22;38934;52.690;6.184;2023-04-08T00:39:04;4.30;99.90
53053;DHT22;38934;52.690;6.184;2023-04-08T00:41:32;4.20;99.90
53053;DHT22;38934;52.690;6.184;2023-04-08T00:43:58;4.20;99.90
53053;DHT22;38934;52.690;6.184;2023-04-08T00:46:24;4.10;99.90
53053;DHT22;38934;52.690;6.184;2023-04-08T00:48:51;4.10;99.90
53053;DHT22;38934;52.690;6.184;2023-04-08T00:51:17;4.00;99.90
53053;DHT22;38934;52.690;6.184;2023-04-08T00:53:43;4.00;99.90
53053;DHT22;38934;52.690;6.184;2023-04-08T00:56:09;3.90;99.90
53053;DHT22;38934;52.690;6.184;2023-04-08T00:58:35;3.90;99.90
53053;DHT22;38934;52.690;6.184;2023-04-08T01:01:13;3.90;99.90
53053;DHT22;38934;52.690;6.184;2023-04-08T01:06:21;4.00;99.90
53053;DHT22;38934;52.690;6.184;2023-04-08T01:08:50;3.90;99.90
53053;DHT22;38934;52.690;6.184;2023-04-08T01:11:16;3.90;99.90
53053;DHT22;38934;52.690;6.184;2023-04-08T01:13:44;3.90;99.90
53053;DHT22;38934;52.690;6.184;2023-04-08T01:16:13;4.00;99.90
53053;DHT22;38934;52.690;6.184;2023-04-08T01:18:42;3.90;99.90
53053;DHT22;38934;52.690;6.184;2023-04-08T01:21:08;3.80;99.90
53053;DHT22;38934;52.690;6.184;2023-04-08T01:23:58;3.80;99.90
53053;DHT22;38934;52.690;6.184;2023-04-08T01:26:26;3.80;99.90
53053;DHT22;38934;52.690;6.184;2023-04-08T01:28:56;3.80;99.90
53053;DHT22;38934;52.690;6.184;2023-04-08T01:31:24;3.80;99.90
53053;DHT22;38934;52.690;6.184;2023-04-08T01:33:51;3.70;99.90
53053;DHT22;38934;52.690;6.184;2023-04-08T01:36:19;3.70;99.90
53053;DHT22;38934;52.690;6.184;2023-04-08T01:38:47;3.70;99.90
53053;DHT22;38934;52.690;6.184;2023-04-08T01:41:13;3.60;99.90
53053;DHT22;38934;52.690;6.184;2023-04-08T01:43:41;4.00;99.90
53053;DHT22;38934;52.690;6.184;2023-04-08T01:46:09;3.60;99.90
53053;DHT22;38934;52.690;6.184;2023-04-08T01:48:36;3.60;99.90
53053;DHT22;38934;52.690;6.184;2023-04-08T01:51:05;3.60;99.90
53053;DHT22;38934;52.690;6.184;2023-04-08T01:53:32;3.60;99.90
53053;DHT22;38934;52.690;6.184;2023-04-08T01:56:05;3.50;99.90
53053;DHT22;38934;52.690;6.184;2023-04-08T01:58:36;3.50;99.90
53053;DHT22;38934;52.690;6.184;2023-04-08T02:01:05;3.50;99.90
53053;DHT22;38934;52.690;6.184;2023-04-08T02:03:33;3.50;99.90
53053;DHT22;38934;52.690;6.184;2023-04-08T02:06:00;3.40;99.90
53053;DHT22;38934;52.690;6.184;2023-04-08T02:08:25;3.50;99.90
53053;DHT22;38934;52.690;6.184;2023-04-08T02:10:51;3.40;99.90
53053;DHT22;38934;52.690;6.184;2023-04-08T02:13:17;3.40;99.90
53053;DHT22;38934;52.690;6.184;2023-04-08T02:15:48;3.40;99.90
53053;DHT22;38934;52.690;6.184;2023-04-08T02:18:21;3.40;99.90
53053;DHT22;38934;52.690;6.184;2023-04-08T02:21:10;3.40;99.90
53053;DHT22;38934;52.690;6.184;2023-04-08T02:23:39;3.40;99.90
53053;DHT22;38934;52.690;6.184;2023-04-08T02:26:09;3.30;99.90
53053;DHT22;38934;52.690;6.184;2023-04-08T02:28:38;3.30;99.90
53053;DHT22;38934;52.690;6.184;2023-04-08T02:31:08;3.30;99.90
53053;DHT22;38934;52.690;6.184;2023-04-08T02:33:34;3.30;99.90
53053;DHT22;38934;52.690;6.184;2023-04-08T02:36:02;3.20;99.90
53053;DHT22;38934;52.690;6.184;2023-04-08T02:38:28;3.20;99.90
53053;DHT22;38934;52.690;6.184;2023-04-08T02:40:56;3.20;99.90
53053;DHT22;38934;52.690;6.184;2023-04-08T02:43:21;3.20;99.90
53053;DHT22;38934;52.690;6.184;2023-04-08T02:45:51;3.20;99.90
53053;DHT22;38934;52.690;6.184;2023-04-08T02:48:17;3.20;99.90
53053;DHT22;38934;52.690;6.184;2023-04-08T02:50:42;3.20;99.90
53053;DHT22;38934;52.690;6.184;2023-04-08T02:53:08;3.20;99.90
53053;DHT22;38934;52.690;6.184;2023-04-08T02:55:34;3.20;99.90
53053;DHT22;38934;52.690;6.184;2023-04-08T02:57:59;3.20;99.90
53053;DHT22;38934;52.690;6.184;2023-04-08T03:00:25;3.10;99.90
53053;DHT22;38934;52.690;6.184;2023-04-08T03:02:51;3.40;99.90
53053;DHT22;38934;52.690;6.184;2023-04-08T03:05:17;3.00;99.90
53053;DHT22;38934;52.690;6.184;2023-04-08T03:07:42;3.20;99.90
53053;DHT22;38934;52.690;6.184;2023-04-08T03:10:08;3.00;99.90
53053;DHT22;38934;52.690;6.184;2023-04-08T03:12:34;2.90;99.90
53053;DHT22;38934;52.690;6.184;2023-04-08T03:14:59;3.00;99.90
53053;DHT22;38934;52.690;6.184;2023-04-08T03:17:26;2.90;99.90
53053;DHT22;38934;52.690;6.184;2023-04-08T03:19:52;2.90;99.90
53053;DHT22;38934;52.690;6.184;2023-04-08T03:22:18;2.90;99.90
53053;DHT22;38934;52.690;6.184;2023-04-08T03:24:43;3.10;99.90
53053;DHT22;38934;52.690;6.184;2023-04-08T03:27:09;2.90;99.90
53053;DHT22;38934;52.690;6.184;2023-04-08T03:29:37;2.80;99.90
53053;DHT22;38934;52.690;6.184;2023-04-08T03:32:03;2.80;99.90
53053;DHT22;38934;52.690;6.184;2023-04-08T03:34:28;2.80;99.90
53053;DHT22;38934;52.690;6.184;2023-04-08T03:36:54;2.80;99.90
53053;DHT22;38934;52.690;6.184;2023-04-08T03:39:19;2.70;99.90
53053;DHT22;38934;52.690;6.184;2023-04-08T03:41:45;2.70;99.90
53053;DHT22;38934;52.690;6.184;2023-04-08T03:44:11;2.70;99.90
53053;DHT22;38934;52.690;6.184;2023-04-08T03:46:36;2.60;99.90
53053;DHT22;38934;52.690;6.184;2023-04-08T03:49:02;3.20;99.90
53053;DHT22;38934;52.690;6.184;2023-04-08T03:51:28;2.50;99.90
53053;DHT22;38934;52.690;6.184;2023-04-08T03:53:53;2.50;99.90
53053;DHT22;38934;52.690;6.184;2023-04-08T03:56:19;2.50;99.90
53053;DHT22;38934;52.690;6.184;2023-04-08T03:58:45;2.50;99.90
53053;DHT22;38934;52.690;6.184;2023-04-08T04:01:10;2.50;99.90
53053;DHT22;38934;52.690;6.184;2023-04-08T04:03:36;2.40;99.90
53053;DHT22;38934;52.690;6.184;2023-04-08T04:06:01;2.40;99.90
53053;DHT22;38934;52.690;6.184;2023-04-08T04:08:29;2.40;99.90
53053;DHT22;38934;52.690;6.184;2023-04-08T04:10:57;2.40;99.90
53053;DHT22;38934;52.690;6.184;2023-04-08T04:13:23;2.30;99.90
53053;DHT22;38934;52.690;6.184;2023-04-08T04:15:48;2.30;99.90
53053;DHT22;38934;52.690;6.184;2023-04-08T04:18:14;2.30;99.90
53053;DHT22;38934;52.690;6.184;2023-04-08T04:20:41;2.30;99.90
53053;DHT22;38934;52.690;6.184;2023-04-08T04:23:07;2.30;99.90
53053;DHT22;38934;52.690;6.184;2023-04-08T04:25:32;2.30;99.90
53053;DHT22;38934;52.690;6.184;2023-04-08T04:27:58;2.20;99.90
53053;DHT22;38934;52.690;6.184;2023-04-08T04:30:24;2.20;99.90
53053;DHT22;38934;52.690;6.184;2023-04-08T04:32:50;2.20;99.90
53053;DHT22;38934;52.690;6.184;2023-04-08T04:35:16;2.10;99.90
53053;DHT22;38934;52.690;6.184;2023-04-08T04:37:41;2.10;99.90
53053;DHT22;38934;52.690;6.184;2023-04-08T04:40:07;2.00;99.90
53053;DHT22;38934;52.690;6.184;2023-04-08T04:42:33;2.10;99.90
53053;DHT22;38934;52.690;6.184;2023-04-08T04:44:59;2.10;99.90
53053;DHT22;38934;52.690;6.184;2023-04-08T04:47:25;2.00;99.90
53053;DHT22;38934;52.690;6.184;2023-04-08T04:49:51;2.10;99.90
53053;DHT22;38934;52.690;6.184;2023-04-08T04:52:16;2.10;99.90
53053;DHT22;38934;52.690;6.184;2023-04-08T04:54:42;2.10;99.90
53053;DHT22;38934;52.690;6.184;2023-04-08T04:57:08;2.10;99.90
53053;DHT22;38934;52.690;6.184;2023-04-08T04:59:35;1.20;99.90
53053;DHT22;38934;52.690;6.184;2023-04-08T05:02:01;2.10;99.90
53053;DHT22;38934;52.690;6.184;2023-04-08T05:04:27;2.10;99.90
53053;DHT22;38934;52.690;6.184;2023-04-08T05:06:52;2.70;99.90
53053;DHT22;38934;52.690;6.184;2023-04-08T05:09:18;2.20;99.90
53053;DHT22;38934;52.690;6.184;2023-04-08T05:11:43;2.10;99.90
53053;DHT22;38934;52.690;6.184;2023-04-08T05:14:09;2.10;99.90
53053;DHT22;38934;52.690;6.184;2023-04-08T05:16:35;2.10;99.90
53053;DHT22;38934;52.690;6.184;2023-04-08T05:19:01;2.10;99.90
53053;DHT22;38934;52.690;6.184;2023-04-08T05:21:27;2.10;99.90
53053;DHT22;38934;52.690;6.184;2023-04-08T05:23:52;2.20;99.90
53053;DHT22;38934;52.690;6.184;2023-04-08T05:26:22;2.10;99.90
53053;DHT22;38934;52.690;6.184;2023-04-08T05:28:48;2.10;99.90
53053;DHT22;38934;52.690;6.184;2023-04-08T05:31:18;2.10;99.90
53053;DHT22;38934;52.690;6.184;2023-04-08T05:33:44;2.10;99.90
53053;DHT22;38934;52.690;6.184;2023-04-08T05:36:10;2.10;99.90
53053;DHT22;38934;52.690;6.184;2023-04-08T05:38:36;2.20;99.90
53053;DHT22;38934;52.690;6.184;2023-04-08T05:41:02;2.20;99.90
53053;DHT22;38934;52.690;6.184;2023-04-08T05:43:28;2.20;99.90
53053;DHT22;38934;52.690;6.184;2023-04-08T05:45:54;2.90;99.90
53053;DHT22;38934;52.690;6.184;2023-04-08T05:48:20;2.30;99.90
53053;DHT22;38934;52.690;6.184;2023-04-08T05:50:46;2.40;99.90
53053;DHT22;38934;52.690;6.184;2023-04-08T05:53:13;2.40;99.90
53053;DHT22;38934;52.690;6.184;2023-04-08T05:55:39;2.50;99.90
53053;DHT22;38934;52.690;6.184;2023-04-08T05:58:05;2.60;99.90
53053;DHT22;38934;52.690;6.184;2023-04-08T06:00:31;2.60;99.90
53053;DHT22;38934;52.690;6.184;2023-04-08T06:02:57;2.70;99.90
53053;DHT22;38934;52.690;6.184;2023-04-08T06:05:22;2.70;99.90
53053;DHT22;38934;52.690;6.184;2023-04-08T06:07:48;2.80;99.90
53053;DHT22;38934;52.690;6.184;2023-04-08T06:10:14;2.70;99.90
53053;DHT22;38934;52.690;6.184;2023-04-08T06:12:40;3.20;99.90
53053;DHT22;38934;52.690;6.184;2023-04-08T06:15:06;2.80;99.90
53053;DHT22;38934;52.690;6.184;2023-04-08T06:17:35;2.90;99.90
53053;DHT22;38934;52.690;6.184;2023-04-08T06:20:02;2.90;99.90
53053;DHT22;38934;52.690;6.184;2023-04-08T06:22:28;3.00;99.90
53053;DHT22;38934;52.690;6.184;2023-04-08T06:24:54;3.40;99.90
53053;DHT22;38934;52.690;6.184;2023-04-08T06:27:20;3.20;99.90
53053;DHT22;38934;52.690;6.184;2023-04-08T06:29:45;3.30;99.90
53053;DHT22;38934;52.690;6.184;2023-04-08T06:32:12;3.30;99.90
53053;DHT22;38934;52.690;6.184;2023-04-08T06:34:38;3.30;99.90
53053;DHT22;38934;52.690;6.184;2023-04-08T06:37:03;3.40;99.90
53053;DHT22;38934;52.690;6.184;2023-04-08T06:39:30;3.40;99.90
53053;DHT22;38934;52.690;6.184;2023-04-08T06:41:56;3.50;99.90
53053;DHT22;38934;52.690;6.184;2023-04-08T06:44:23;3.60;99.90
53053;DHT22;38934;52.690;6.184;2023-04-08T06:46:49;3.60;99.90
53053;DHT22;38934;52.690;6.184;2023-04-08T06:49:14;3.70;99.90
53053;DHT22;38934;52.690;6.184;2023-04-08T06:51:40;3.70;99.90
53053;DHT22;38934;52.690;6.184;2023-04-08T06:54:06;3.80;99.90
53053;DHT22;38934;52.690;6.184;2023-04-08T06:56:31;3.90;99.90
53053;DHT22;38934;52.690;6.184;2023-04-08T06:58:57;4.00;99.90
53053;DHT22;38934;52.690;6.184;2023-04-08T07:01:23;4.10;99.90
53053;DHT22;38934;52.690;6.184;2023-04-08T07:03:49;4.20;99.90
53053;DHT22;38934;52.690;6.184;2023-04-08T07:06:15;4.40;99.90
53053;DHT22;38934;52.690;6.184;2023-04-08T07:08:41;4.50;99.90
53053;DHT22;38934;52.690;6.184;2023-04-08T07:11:10;4.60;99.90
53053;DHT22;38934;52.690;6.184;2023-04-08T07:13:35;4.70;99.90
53053;DHT22;38934;52.690;6.184;2023-04-08T07:16:01;4.80;99.90
53053;DHT22;38934;52.690;6.184;2023-04-08T07:18:27;4.90;99.90
53053;DHT22;38934;52.690;6.184;2023-04-08T07:20:53;5.00;99.90
53053;DHT22;38934;52.690;6.184;2023-04-08T07:23:19;5.20;99.90
53053;DHT22;38934;52.690;6.184;2023-04-08T07:25:45;5.30;99.90
53053;DHT22;38934;52.690;6.184;2023-04-08T07:28:11;5.40;99.90
53053;DHT22;38934;52.690;6.184;2023-04-08T07:30:37;5.50;99.90
53053;DHT22;38934;52.690;6.184;2023-04-08T07:33:03;5.50;99.90
53053;DHT22;38934;52.690;6.184;2023-04-08T07:35:28;5.70;99.90
53053;DHT22;38934;52.690;6.184;2023-04-08T07:37:56;5.80;99.90
53053;DHT22;38934;52.690;6.184;2023-04-08T07:40:22;5.90;99.90
53053;DHT22;38934;52.690;6.184;2023-04-08T07:42:48;6.00;99.90
53053;DHT22;38934;52.690;6.184;2023-04-08T07:45:14;6.00;99.90
53053;DHT22;38934;52.690;6.184;2023-04-08T07:47:40;6.10;99.90
53053;DHT22;38934;52.690;6.184;2023-04-08T07:50:06;6.30;99.90
53053;DHT22;38934;52.690;6.184;2023-04-08T07:52:33;6.30;99.90
53053;DHT22;38934;52.690;6.184;2023-04-08T07:54:58;6.40;99.90
53053;DHT22;38934;52.690;6.184;2023-04-08T07:57:25;6.40;99.90
53053;DHT22;38934;52.690;6.184;2023-04-08T07:59:51;6.50;99.90
53053;DHT22;38934;52.690;6.184;2023-04-08T08:02:16;6.50;99.90
53053;DHT22;38934;52.690;6.184;2023-04-08T08:04:42;6.50;99.90
53053;DHT22;38934;52.690;6.184;2023-04-08T08:07:08;6.60;99.90
53053;DHT22;38934;52.690;6.184;2023-04-08T08:09:33;6.80;99.90
53053;DHT22;38934;52.690;6.184;2023-04-08T08:11:59;6.80;99.90
53053;DHT22;38934;52.690;6.184;2023-04-08T08:14:25;6.80;99.90
53053;DHT22;38934;52.690;6.184;2023-04-08T08:16:51;6.90;99.90
53053;DHT22;38934;52.690;6.184;2023-04-08T08:19:19;7.00;99.90
53053;DHT22;38934;52.690;6.184;2023-04-08T08:21:45;7.00;99.90
53053;DHT22;38934;52.690;6.184;2023-04-08T08:24:11;7.10;99.90
53053;DHT22;38934;52.690;6.184;2023-04-08T08:26:37;7.10;99.90
53053;DHT22;38934;52.690;6.184;2023-04-08T08:29:04;7.10;99.90
53053;DHT22;38934;52.690;6.184;2023-04-08T08:31:30;7.80;99.90
53053;DHT22;38934;52.690;6.184;2023-04-08T08:33:56;7.60;99.90
53053;DHT22;38934;52.690;6.184;2023-04-08T08:36:22;7.70;99.90
53053;DHT22;38934;52.690;6.184;2023-04-08T08:38:47;7.70;99.90
53053;DHT22;38934;52.690;6.184;2023-04-08T08:41:13;7.80;99.90
53053;DHT22;38934;52.690;6.184;2023-04-08T08:43:39;7.80;99.90
53053;DHT22;38934;52.690;6.184;2023-04-08T08:46:09;7.90;99.90
53053;DHT22;38934;52.690;6.184;2023-04-08T08:48:36;8.00;99.90
53053;DHT22;38934;52.690;6.184;2023-04-08T08:51:10;8.10;99.90
53053;DHT22;38934;52.690;6.184;2023-04-08T08:53:37;8.30;99.90
53053;DHT22;38934;52.690;6.184;2023-04-08T08:56:03;8.40;99.90
53053;DHT22;38934;52.690;6.184;2023-04-08T08:58:29;8.60;99.90
53053;DHT22;38934;52.690;6.184;2023-04-08T09:00:54;8.70;99.90
53053;DHT22;38934;52.690;6.184;2023-04-08T09:03:22;8.60;99.90
53053;DHT22;38934;52.690;6.184;2023-04-08T09:05:51;8.60;99.90
53053;DHT22;38934;52.690;6.184;2023-04-08T09:08:37;8.50;99.90
53053;DHT22;38934;52.690;6.184;2023-04-08T09:11:19;8.50;99.90
53053;DHT22;38934;52.690;6.184;2023-04-08T09:13:48;8.40;99.90
53053;DHT22;38934;52.690;6.184;2023-04-08T09:16:15;8.40;99.90
53053;DHT22;38934;52.690;6.184;2023-04-08T09:18:43;8.50;99.90
53053;DHT22;38934;52.690;6.184;2023-04-08T09:21:15;8.50;99.90
53053;DHT22;38934;52.690;6.184;2023-04-08T09:23:50;8.50;99.90
53053;DHT22;38934;52.690;6.184;2023-04-08T09:26:23;8.50;99.90
53053;DHT22;38934;52.690;6.184;2023-04-08T09:31:25;8.60;99.90
53053;DHT22;38934;52.690;6.184;2023-04-08T09:33:56;8.70;99.90
53053;DHT22;38934;52.690;6.184;2023-04-08T09:36:24;8.80;99.90
53053;DHT22;38934;52.690;6.184;2023-04-08T09:38:54;8.80;99.90
53053;DHT22;38934;52.690;6.184;2023-04-08T09:41:20;8.90;99.90
53053;DHT22;38934;52.690;6.184;2023-04-08T09:43:50;9.30;99.90
53053;DHT22;38934;52.690;6.184;2023-04-08T09:46:18;9.10;99.90
53053;DHT22;38934;52.690;6.184;2023-04-08T09:48:53;9.20;99.90
53053;DHT22;38934;52.690;6.184;2023-04-08T09:51:22;9.20;99.90
53053;DHT22;38934;52.690;6.184;2023-04-08T09:53:55;9.20;99.90
53053;DHT22;38934;52.690;6.184;2023-04-08T09:56:22;9.30;99.90
53053;DHT22;38934;52.690;6.184;2023-04-08T09:58:51;9.30;99.90
53053;DHT22;38934;52.690;6.184;2023-04-08T10:01:25;9.30;99.90
53053;DHT22;38934;52.690;6.184;2023-04-08T10:03:54;9.30;99.90
53053;DHT22;38934;52.690;6.184;2023-04-08T10:06:27;9.40;99.90
53053;DHT22;38934;52.690;6.184;2023-04-08T10:08:55;9.50;99.90
53053;DHT22;38934;52.690;6.184;2023-04-08T10:11:21;9.60;99.90
53053;DHT22;38934;52.690;6.184;2023-04-08T10:13:47;9.80;99.90
53053;DHT22;38934;52.690;6.184;2023-04-08T10:16:22;9.90;99.90
53053;DHT22;38934;52.690;6.184;2023-04-08T10:18:50;9.90;99.90
53053;DHT22;38934;52.690;6.184;2023-04-08T10:21:37;10.00;99.90
53053;DHT22;38934;52.690;6.184;2023-04-08T10:24:06;10.10;99.90
53053;DHT22;38934;52.690;6.184;2023-04-08T10:26:37;10.30;99.90
53053;DHT22;38934;52.690;6.184;2023-04-08T10:31:48;10.40;99.90
53053;DHT22;38934;52.690;6.184;2023-04-08T10:34:20;10.60;99.90
53053;DHT22;38934;52.690;6.184;2023-04-08T10:36:47;10.90;99.90
53053;DHT22;38934;52.690;6.184;2023-04-08T10:39:14;11.30;99.90
53053;DHT22;38934;52.690;6.184;2023-04-08T10:41:47;11.60;99.90
53053;DHT22;38934;52.690;6.184;2023-04-08T10:44:19;11.70;99.90
53053;DHT22;38934;52.690;6.184;2023-04-08T10:46:49;11.80;99.90
53053;DHT22;38934;52.690;6.184;2023-04-08T10:49:16;11.90;99.90
53053;DHT22;38934;52.690;6.184;2023-04-08T10:51:42;12.60;99.90
53053;DHT22;38934;52.690;6.184;2023-04-08T10:54:13;11.80;99.90
53053;DHT22;38934;52.690;6.184;2023-04-08T10:56:49;11.90;99.90
53053;DHT22;38934;52.690;6.184;2023-04-08T10:59:20;11.80;99.90
53053;DHT22;38934;52.690;6.184;2023-04-08T11:01:51;11.90;99.90
53053;DHT22;38934;52.690;6.184;2023-04-08T11:04:17;11.90;99.90
53053;DHT22;38934;52.690;6.184;2023-04-08T11:06:45;11.70;99.90
53053;DHT22;38934;52.690;6.184;2023-04-08T11:09:12;11.70;99.90
53053;DHT22;38934;52.690;6.184;2023-04-08T11:11:40;11.50;99.90
53053;DHT22;38934;52.690;6.184;2023-04-08T11:14:06;11.90;99.90
53053;DHT22;38934;52.690;6.184;2023-04-08T11:16:33;11.30;99.90
53053;DHT22;38934;52.690;6.184;2023-04-08T11:19:02;11.30;99.90
53053;DHT22;38934;52.690;6.184;2023-04-08T11:21:30;11.10;99.90
53053;DHT22;38934;52.690;6.184;2023-04-08T11:23:56;11.90;99.90
53053;DHT22;38934;52.690;6.184;2023-04-08T11:26:22;11.10;99.90
53053;DHT22;38934;52.690;6.184;2023-04-08T11:28:49;11.30;99.90
53053;DHT22;38934;52.690;6.184;2023-04-08T11:31:19;11.40;99.90
53053;DHT22;38934;52.690;6.184;2023-04-08T11:33:52;11.40;99.90
53053;DHT22;38934;52.690;6.184;2023-04-08T11:36:18;11.40;99.90
53053;DHT22;38934;52.690;6.184;2023-04-08T11:38:43;11.70;99.90
53053;DHT22;38934;52.690;6.184;2023-04-08T11:41:10;11.50;99.90
53053;DHT22;38934;52.690;6.184;2023-04-08T11:43:36;11.40;99.90
53053;DHT22;38934;52.690;6.184;2023-04-08T11:46:10;11.50;99.90
53053;DHT22;38934;52.690;6.184;2023-04-08T11:48:35;11.80;99.90
53053;DHT22;38934;52.690;6.184;2023-04-08T11:51:07;11.70;99.90
53053;DHT22;38934;52.690;6.184;2023-04-08T11:53:37;11.80;99.90
53053;DHT22;38934;52.690;6.184;2023-04-08T11:56:18;11.80;99.90
53053;DHT22;38934;52.690;6.184;2023-04-08T11:58:44;11.90;99.90
53053;DHT22;38934;52.690;6.184;2023-04-08T12:01:11;11.90;99.90
53053;DHT22;38934;52.690;6.184;2023-04-08T12:03:36;11.90;99.90
53053;DHT22;38934;52.690;6.184;2023-04-08T12:06:06;11.80;99.90
53053;DHT22;38934;52.690;6.184;2023-04-08T12:08:33;11.90;99.90
53053;DHT22;38934;52.690;6.184;2023-04-08T12:10:59;12.40;99.90
53053;DHT22;38934;52.690;6.184;2023-04-08T12:13:25;12.10;99.90
53053;DHT22;38934;52.690;6.184;2023-04-08T12:15:52;12.10;99.90
53053;DHT22;38934;52.690;6.184;2023-04-08T12:18:17;12.10;99.90
53053;DHT22;38934;52.690;6.184;2023-04-08T12:20:43;12.20;99.90
53053;DHT22;38934;52.690;6.184;2023-04-08T12:23:08;12.20;99.90
53053;DHT22;38934;52.690;6.184;2023-04-08T12:25:34;12.20;99.90
53053;DHT22;38934;52.690;6.184;2023-04-08T12:28:00;12.30;99.90
53053;DHT22;38934;52.690;6.184;2023-04-08T12:30:28;12.40;99.90
53053;DHT22;38934;52.690;6.184;2023-04-08T12:32:54;12.30;99.90
53053;DHT22;38934;52.690;6.184;2023-04-08T12:35:19;12.50;99.90
53053;DHT22;38934;52.690;6.184;2023-04-08T12:37:45;12.60;99.90
53053;DHT22;38934;52.690;6.184;2023-04-08T12:40:11;12.80;99.90
53053;DHT22;38934;52.690;6.184;2023-04-08T12:42:36;12.80;99.90
53053;DHT22;38934;52.690;6.184;2023-04-08T12:45:02;12.60;99.90
53053;DHT22;38934;52.690;6.184;2023-04-08T12:47:28;12.50;99.90
53053;DHT22;38934;52.690;6.184;2023-04-08T12:49:54;12.40;99.90
53053;DHT22;38934;52.690;6.184;2023-04-08T12:52:19;12.80;99.90
53053;DHT22;38934;52.690;6.184;2023-04-08T12:54:45;12.50;99.90
53053;DHT22;38934;52.690;6.184;2023-04-08T12:57:10;12.60;99.90
53053;DHT22;38934;52.690;6.184;2023-04-08T12:59:37;12.50;99.90
53053;DHT22;38934;52.690;6.184;2023-04-08T13:02:04;12.50;99.90
53053;DHT22;38934;52.690;6.184;2023-04-08T13:04:30;12.40;99.90
53053;DHT22;38934;52.690;6.184;2023-04-08T13:06:55;12.60;99.90
53053;DHT22;38934;52.690;6.184;2023-04-08T13:09:21;12.80;99.90
53053;DHT22;38934;52.690;6.184;2023-04-08T13:11:47;13.60;99.90
53053;DHT22;38934;52.690;6.184;2023-04-08T13:14:13;12.90;99.90
53053;DHT22;38934;52.690;6.184;2023-04-08T13:16:39;12.80;99.90
53053;DHT22;38934;52.690;6.184;2023-04-08T13:19:04;13.20;99.90
53053;DHT22;38934;52.690;6.184;2023-04-08T13:21:30;12.80;99.90
53053;DHT22;38934;52.690;6.184;2023-04-08T13:23:56;12.80;99.90
53053;DHT22;38934;52.690;6.184;2023-04-08T13:26:22;12.90;99.90
53053;DHT22;38934;52.690;6.184;2023-04-08T13:28:48;12.90;99.90
53053;DHT22;38934;52.690;6.184;2023-04-08T13:31:16;12.90;99.90
53053;DHT22;38934;52.690;6.184;2023-04-08T13:33:43;13.60;99.90
53053;DHT22;38934;52.690;6.184;2023-04-08T13:36:09;13.20;99.90
53053;DHT22;38934;52.690;6.184;2023-04-08T13:38:34;13.00;99.90
53053;DHT22;38934;52.690;6.184;2023-04-08T13:41:00;12.70;99.90
53053;DHT22;38934;52.690;6.184;2023-04-08T13:43:27;12.60;99.90
53053;DHT22;38934;52.690;6.184;2023-04-08T13:45:55;12.60;99.90
53053;DHT22;38934;52.690;6.184;2023-04-08T13:48:21;12.50;99.90
53053;DHT22;38934;52.690;6.184;2023-04-08T13:50:47;12.50;99.90
53053;DHT22;38934;52.690;6.184;2023-04-08T13:53:13;12.50;99.90
53053;DHT22;38934;52.690;6.184;2023-04-08T13:55:39;12.50;99.90
53053;DHT22;38934;52.690;6.184;2023-04-08T13:58:05;12.60;99.90
53053;DHT22;38934;52.690;6.184;2023-04-08T14:00:31;12.50;99.90
53053;DHT22;38934;52.690;6.184;2023-04-08T14:02:57;12.50;99.90
53053;DHT22;38934;52.690;6.184;2023-04-08T14:05:22;12.50;99.90
53053;DHT22;38934;52.690;6.184;2023-04-08T14:07:48;12.50;99.90
53053;DHT22;38934;52.690;6.184;2023-04-08T14:10:14;12.50;99.90
53053;DHT22;38934;52.690;6.184;2023-04-08T14:12:41;12.60;99.90
53053;DHT22;38934;52.690;6.184;2023-04-08T14:15:08;12.70;99.90
53053;DHT22;38934;52.690;6.184;2023-04-08T14:17:37;12.80;99.90
53053;DHT22;38934;52.690;6.184;2023-04-08T14:20:03;12.80;99.90
53053;DHT22;38934;52.690;6.184;2023-04-08T14:22:30;12.70;99.90
53053;DHT22;38934;52.690;6.184;2023-04-08T14:24:56;12.60;99.90
53053;DHT22;38934;52.690;6.184;2023-04-08T14:27:21;12.50;99.90
53053;DHT22;38934;52.690;6.184;2023-04-08T14:29:47;12.50;99.90
53053;DHT22;38934;52.690;6.184;2023-04-08T14:32:13;12.80;99.90
53053;DHT22;38934;52.690;6.184;2023-04-08T14:34:39;12.70;99.90
53053;DHT22;38934;52.690;6.184;2023-04-08T14:37:04;12.60;99.90
53053;DHT22;38934;52.690;6.184;2023-04-08T14:39:30;12.50;99.90
53053;DHT22;38934;52.690;6.184;2023-04-08T14:41:55;12.30;99.90
53053;DHT22;38934;52.690;6.184;2023-04-08T14:44:23;12.20;99.90
53053;DHT22;38934;52.690;6.184;2023-04-08T14:46:48;12.10;99.90
53053;DHT22;38934;52.690;6.184;2023-04-08T14:49:14;12.10;99.90
53053;DHT22;38934;52.690;6.184;2023-04-08T14:51:40;12.10;99.90
53053;DHT22;38934;52.690;6.184;2023-04-08T14:54:05;12.40;99.90
53053;DHT22;38934;52.690;6.184;2023-04-08T14:56:31;12.40;99.90
53053;DHT22;38934;52.690;6.184;2023-04-08T14:58:57;12.10;99.90
53053;DHT22;38934;52.690;6.184;2023-04-08T15:01:22;12.00;99.90
53053;DHT22;38934;52.690;6.184;2023-04-08T15:03:48;12.00;99.90
53053;DHT22;38934;52.690;6.184;2023-04-08T15:06:13;11.90;99.90
53053;DHT22;38934;52.690;6.184;2023-04-08T15:08:42;11.80;99.90
53053;DHT22;38934;52.690;6.184;2023-04-08T15:11:08;11.70;99.90
53053;DHT22;38934;52.690;6.184;2023-04-08T15:13:35;12.20;99.90
53053;DHT22;38934;52.690;6.184;2023-04-08T15:16:01;11.70;99.90
53053;DHT22;38934;52.690;6.184;2023-04-08T15:18:27;11.60;99.90
53053;DHT22;38934;52.690;6.184;2023-04-08T15:20:53;11.90;99.90
53053;DHT22;38934;52.690;6.184;2023-04-08T15:23:19;11.60;99.90
53053;DHT22;38934;52.690;6.184;2023-04-08T15:25:44;11.60;99.90
53053;DHT22;38934;52.690;6.184;2023-04-08T15:28:10;12.10;99.90
53053;DHT22;38934;52.690;6.184;2023-04-08T15:30:36;11.30;99.90
53053;DHT22;38934;52.690;6.184;2023-04-08T15:33:03;11.20;99.90
53053;DHT22;38934;52.690;6.184;2023-04-08T15:35:29;11.20;99.90
53053;DHT22;38934;52.690;6.184;2023-04-08T15:37:55;11.10;99.90
53053;DHT22;38934;52.690;6.184;2023-04-08T15:40:21;11.10;99.90
53053;DHT22;38934;52.690;6.184;2023-04-08T15:42:46;11.00;99.90
53053;DHT22;38934;52.690;6.184;2023-04-08T15:45:12;11.00;99.90